sensor_id;sensor_type;location;lat;lon;timestamp;pressure;altitude;pressure_sealevel;temperature;humidity
49759;BME280;35654;46.080;11.118;2022-11-20T00:00:49;98687.13;;;5.32;71.61
49759;BME280;35654;46.080;11.118;2022-11-20T00:03:15;98689.56;;;5.33;71.72
49759;BME280;35654;46.080;11.118;2022-11-20T00:05:40;98688.19;;;5.30;71.36
49759;BME280;35654;46.080;11.118;2022-11-20T00:08:05;98693.94;;;5.24;71.38
49759;BME280;35654;46.080;11.118;2022-11-20T00:10:31;98694.19;;;5.22;71.37
49759;BME280;35654;46.080;11.118;2022-11-20T00:12:59;98695.31;;;5.21;71.12
49759;BME280;35654;46.080;11.118;2022-11-20T00:15:24;98694.19;;;5.22;71.11
49759;BME280;35654;46.080;11.118;2022-11-20T00:17:50;98698.84;;;5.22;71.45
49759;BME280;35654;46.080;11.118;2022-11-20T00:20:15;98701.53;;;5.17;71.98
49759;BME280;35654;46.080;11.118;2022-11-20T00:22:41;98712.41;;;5.12;72.59
49759;BME280;35654;46.080;11.118;2022-11-20T00:25:06;98700.75;;;5.11;72.86
49759;BME280;35654;46.080;11.118;2022-11-20T00:27:32;98714.31;;;5.11;72.83
49759;BME280;35654;46.080;11.118;2022-11-20T00:29:57;98719.22;;;5.09;73.01
49759;BME280;35654;46.080;11.118;2022-11-20T00:32:23;98722.22;;;5.08;72.93
49759;BME280;35654;46.080;11.118;2022-11-20T00:34:48;98720.03;;;5.05;72.48
49759;BME280;35654;46.080;11.118;2022-11-20T00:37:13;98724.94;;;4.93;72.92
49759;BME280;35654;46.080;11.118;2022-11-20T00:39:39;98724.13;;;4.87;73.37
49759;BME280;35654;46.080;11.118;2022-11-20T00:42:04;98726.06;;;4.77;74.06
49759;BME280;35654;46.080;11.118;2022-11-20T00:44:30;98723.59;;;4.75;74.52
49759;BME280;35654;46.080;11.118;2022-11-20T00:46:55;98732.84;;;4.74;74.39
49759;BME280;35654;46.080;11.118;2022-11-20T00:49:20;98730.13;;;4.74;73.97
49759;BME280;35654;46.080;11.118;2022-11-20T00:51:46;98732.53;;;4.81;73.08
49759;BME280;35654;46.080;11.118;2022-11-20T00:54:11;98735.53;;;4.79;73.32
49759;BME280;35654;46.080;11.118;2022-11-20T00:56:37;98743.41;;;4.76;73.42
49759;BME280;35654;46.080;11.118;2022-11-20T00:59:02;98741.53;;;4.66;74.22
49759;BME280;35654;46.080;11.118;2022-11-20T01:01:28;98745.03;;;4.61;74.65
49759;BME280;35654;46.080;11.118;2022-11-20T01:03:58;98742.59;;;4.60;74.81
49759;BME280;35654;46.080;11.118;2022-11-20T01:06:32;98751.81;;;4.64;74.51
49759;BME280;35654;46.080;11.118;2022-11-20T01:09:00;98753.69;;;4.63;74.59
49759;BME280;35654;46.080;11.118;2022-11-20T01:11:28;98748.56;;;4.62;74.53
49759;BME280;35654;46.080;11.118;2022-11-20T01:13:55;98752.88;;;4.58;74.86
49759;BME280;35654;46.080;11.118;2022-11-20T01:16:31;98754.53;;;4.59;74.68
49759;BME280;35654;46.080;11.118;2022-11-20T01:18:58;98757.53;;;4.62;74.37
49759;BME280;35654;46.080;11.118;2022-11-20T01:21:45;98756.41;;;4.63;74.38
49759;BME280;35654;46.080;11.118;2022-11-20T01:24:14;98766.19;;;4.64;73.43
49759;BME280;35654;46.080;11.118;2022-11-20T01:26:41;98767.00;;;4.70;72.49
49759;BME280;35654;46.080;11.118;2022-11-20T01:29:12;98760.75;;;4.69;72.39
49759;BME280;35654;46.080;11.118;2022-11-20T01:31:38;98761.84;;;4.58;73.54
49759;BME280;35654;46.080;11.118;2022-11-20T01:34:12;98771.34;;;4.41;74.67
49759;BME280;35654;46.080;11.118;2022-11-20T01:36:39;98775.41;;;4.38;74.90
49759;BME280;35654;46.080;11.118;2022-11-20T01:39:16;98769.41;;;4.36;75.33
49759;BME280;35654;46.080;11.118;2022-11-20T01:41:42;98778.66;;;4.40;75.26
49759;BME280;35654;46.080;11.118;2022-11-20T01:44:58;98768.63;;;4.41;75.07
49759;BME280;35654;46.080;11.118;2022-11-20T01:47:32;98771.06;;;4.42;74.52
49759;BME280;35654;46.080;11.118;2022-11-20T01:50:04;98777.28;;;4.43;74.16
49759;BME280;35654;46.080;11.118;2022-11-20T01:52:34;98768.34;;;4.42;74.09
49759;BME280;35654;46.080;11.118;2022-11-20T01:55:07;98775.94;;;4.40;74.73
49759;BME280;35654;46.080;11.118;2022-11-20T01:57:34;98773.19;;;4.30;75.60
49759;BME280;35654;46.080;11.118;2022-11-20T02:00:12;98777.53;;;4.26;74.92
49759;BME280;35654;46.080;11.118;2022-11-20T02:02:41;98782.44;;;4.29;74.74
49759;BME280;35654;46.080;11.118;2022-11-20T02:05:32;98774.31;;;4.29;74.75
49759;BME280;35654;46.080;11.118;2022-11-20T02:08:02;98775.38;;;4.18;75.79
49759;BME280;35654;46.080;11.118;2022-11-20T02:10:29;98781.56;;;4.13;76.26
49759;BME280;35654;46.080;11.118;2022-11-20T02:12:55;98787.78;;;4.09;77.01
49759;BME280;35654;46.080;11.118;2022-11-20T02:15:39;98785.59;;;4.01;77.08
49759;BME280;35654;46.080;11.118;2022-11-20T02:18:05;98789.13;;;4.01;77.33
49759;BME280;35654;46.080;11.118;2022-11-20T02:20:31;98785.91;;;4.04;76.79
49759;BME280;35654;46.080;11.118;2022-11-20T02:23:25;98791.56;;;4.08;76.67
49759;BME280;35654;46.080;11.118;2022-11-20T02:25:54;98784.25;;;4.03;77.13
49759;BME280;35654;46.080;11.118;2022-11-20T02:28:20;98785.59;;;4.01;77.65
49759;BME280;35654;46.080;11.118;2022-11-20T02:30:47;98787.47;;;3.90;78.00
49759;BME280;35654;46.080;11.118;2022-11-20T02:33:12;98798.25;;;3.80;78.47
49759;BME280;35654;46.080;11.118;2022-11-20T02:35:43;98799.59;;;3.78;78.43
49759;BME280;35654;46.080;11.118;2022-11-20T02:38:09;98795.28;;;3.82;78.49
49759;BME280;35654;46.080;11.118;2022-11-20T02:40:35;98803.69;;;3.85;78.90
49759;BME280;35654;46.080;11.118;2022-11-20T02:43:00;98798.03;;;3.92;78.15
49759;BME280;35654;46.080;11.118;2022-11-20T02:45:26;98796.16;;;3.92;78.32
49759;BME280;35654;46.080;11.118;2022-11-20T02:47:51;98801.81;;;3.91;78.01
49759;BME280;35654;46.080;11.118;2022-11-20T02:50:17;98801.28;;;3.89;78.30
49759;BME280;35654;46.080;11.118;2022-11-20T02:52:43;98794.25;;;3.88;78.66
49759;BME280;35654;46.080;11.118;2022-11-20T02:55:08;98797.75;;;3.88;78.47
49759;BME280;35654;46.080;11.118;2022-11-20T02:57:34;98796.91;;;3.83;78.64
49759;BME280;35654;46.080;11.118;2022-11-20T03:00:00;98798.81;;;3.82;78.70
49759;BME280;35654;46.080;11.118;2022-11-20T03:02:25;98799.63;;;3.83;78.80
49759;BME280;35654;46.080;11.118;2022-11-20T03:04:50;98796.38;;;3.81;78.84
49759;BME280;35654;46.080;11.118;2022-11-20T03:07:16;98799.34;;;3.79;79.37
49759;BME280;35654;46.080;11.118;2022-11-20T03:09:41;98798.25;;;3.80;79.62
49759;BME280;35654;46.080;11.118;2022-11-20T03:12:07;98795.00;;;3.78;79.84
49759;BME280;35654;46.080;11.118;2022-11-20T03:14:32;98791.75;;;3.76;79.21
49759;BME280;35654;46.080;11.118;2022-11-20T03:16:58;98805.53;;;3.70;79.67
49759;BME280;35654;46.080;11.118;2022-11-20T03:19:23;98806.84;;;3.62;79.59
49759;BME280;35654;46.080;11.118;2022-11-20T03:21:49;98808.16;;;3.54;79.92
49759;BME280;35654;46.080;11.118;2022-11-20T03:24:15;98815.16;;;3.45;80.85
49759;BME280;35654;46.080;11.118;2022-11-20T03:26:40;98810.00;;;3.49;80.97
49759;BME280;35654;46.080;11.118;2022-11-20T03:29:06;98816.53;;;3.53;80.81
49759;BME280;35654;46.080;11.118;2022-11-20T03:31:37;98820.38;;;3.62;80.81
49759;BME280;35654;46.080;11.118;2022-11-20T03:34:05;98818.53;;;3.68;80.06
49759;BME280;35654;46.080;11.118;2022-11-20T03:36:31;98817.69;;;3.67;79.74
49759;BME280;35654;46.080;11.118;2022-11-20T03:38:57;98817.16;;;3.65;80.32
49759;BME280;35654;46.080;11.118;2022-11-20T03:41:28;98820.38;;;3.62;79.95
49759;BME280;35654;46.080;11.118;2022-11-20T03:44:01;98823.63;;;3.59;80.56
49759;BME280;35654;46.080;11.118;2022-11-20T03:46:28;98832.03;;;3.63;80.15
49759;BME280;35654;46.080;11.118;2022-11-20T03:48:54;98832.03;;;3.63;79.64
49759;BME280;35654;46.080;11.118;2022-11-20T03:53:47;98829.34;;;3.63;80.25
49759;BME280;35654;46.080;11.118;2022-11-20T03:56:13;98842.28;;;3.61;80.06
49759;BME280;35654;46.080;11.118;2022-11-20T03:58:40;98839.31;;;3.57;80.50
49759;BME280;35654;46.080;11.118;2022-11-20T04:01:14;98843.91;;;3.57;81.49
49759;BME280;35654;46.080;11.118;2022-11-20T04:03:41;98840.63;;;3.54;80.81
49759;BME280;35654;46.080;11.118;2022-11-20T04:06:09;98840.59;;;3.44;81.14
49759;BME280;35654;46.080;11.118;2022-11-20T04:08:34;98839.50;;;3.40;81.74
49759;BME280;35654;46.080;11.118;2022-11-20T04:11:16;98844.09;;;3.40;81.71
49759;BME280;35654;46.080;11.118;2022-11-20T04:13:46;98850.56;;;3.39;82.02
49759;BME280;35654;46.080;11.118;2022-11-20T04:16:11;98850.31;;;3.40;81.99
49759;BME280;35654;46.080;11.118;2022-11-20T04:18:37;98842.72;;;3.37;82.29
49759;BME280;35654;46.080;11.118;2022-11-20T04:21:04;98840.00;;;3.37;82.04
49759;BME280;35654;46.080;11.118;2022-11-20T04:23:30;98845.13;;;3.34;82.33
49759;BME280;35654;46.080;11.118;2022-11-20T04:26:01;98851.84;;;3.26;82.76
49759;BME280;35654;46.080;11.118;2022-11-20T04:28:27;98844.75;;;3.20;83.07
49759;BME280;35654;46.080;11.118;2022-11-20T04:30:52;98840.13;;;3.16;82.93
49759;BME280;35654;46.080;11.118;2022-11-20T04:33:18;98842.81;;;3.16;83.24
49759;BME280;35654;46.080;11.118;2022-11-20T04:35:46;98853.63;;;3.16;82.87
49759;BME280;35654;46.080;11.118;2022-11-20T04:38:12;98858.50;;;3.14;82.73
49759;BME280;35654;46.080;11.118;2022-11-20T04:40:37;98860.66;;;3.12;83.20
49759;BME280;35654;46.080;11.118;2022-11-20T04:43:03;98855.56;;;3.15;83.31
49759;BME280;35654;46.080;11.118;2022-11-20T04:45:28;98863.41;;;3.17;83.03
49759;BME280;35654;46.080;11.118;2022-11-20T04:47:53;98855.81;;;3.19;82.74
49759;BME280;35654;46.080;11.118;2022-11-20T04:50:19;98859.91;;;3.21;82.60
49759;BME280;35654;46.080;11.118;2022-11-20T04:52:44;98855.31;;;3.22;82.16
49759;BME280;35654;46.080;11.118;2022-11-20T04:55:09;98862.59;;;3.21;82.42
49759;BME280;35654;46.080;11.118;2022-11-20T04:57:35;98856.69;;;3.24;81.98
49759;BME280;35654;46.080;11.118;2022-11-20T05:00:00;98862.66;;;3.26;82.21
49759;BME280;35654;46.080;11.118;2022-11-20T05:02:26;98855.09;;;3.28;81.84
49759;BME280;35654;46.080;11.118;2022-11-20T05:04:51;98861.84;;;3.26;82.13
49759;BME280;35654;46.080;11.118;2022-11-20T05:07:16;98853.19;;;3.24;82.35
49759;BME280;35654;46.080;11.118;2022-11-20T05:09:42;98862.34;;;3.18;82.68
49759;BME280;35654;46.080;11.118;2022-11-20T05:12:08;98859.31;;;3.14;82.90
49759;BME280;35654;46.080;11.118;2022-11-20T05:14:33;98858.44;;;3.04;83.41
49759;BME280;35654;46.080;11.118;2022-11-20T05:16:59;98858.44;;;3.04;83.59
49759;BME280;35654;46.080;11.118;2022-11-20T05:19:24;98863.00;;;2.98;84.07
49759;BME280;35654;46.080;11.118;2022-11-20T05:21:50;98860.53;;;2.97;84.43
49759;BME280;35654;46.080;11.118;2022-11-20T05:24:15;98865.38;;;2.94;84.33
49759;BME280;35654;46.080;11.118;2022-11-20T05:26:40;98866.75;;;2.97;84.27
49759;BME280;35654;46.080;11.118;2022-11-20T05:29:06;98863.19;;;2.91;84.62
49759;BME280;35654;46.080;11.118;2022-11-20T05:31:31;98870.75;;;2.89;84.65
49759;BME280;35654;46.080;11.118;2022-11-20T05:33:57;98868.53;;;2.81;84.47
49759;BME280;35654;46.080;11.118;2022-11-20T05:36:22;98871.16;;;2.76;84.99
49759;BME280;35654;46.080;11.118;2022-11-20T05:38:48;98877.97;;;2.79;85.27
49759;BME280;35654;46.080;11.118;2022-11-20T05:41:16;98879.56;;;2.80;85.07
49759;BME280;35654;46.080;11.118;2022-11-20T05:43:44;98879.88;;;2.83;84.78
49759;BME280;35654;46.080;11.118;2022-11-20T05:46:11;98880.44;;;2.85;84.71
49759;BME280;35654;46.080;11.118;2022-11-20T05:48:38;98880.44;;;2.85;84.76
49759;BME280;35654;46.080;11.118;2022-11-20T05:51:06;98883.97;;;2.86;84.77
49759;BME280;35654;46.080;11.118;2022-11-20T05:53:33;98881.53;;;2.84;84.13
49759;BME280;35654;46.080;11.118;2022-11-20T05:56:04;98891.47;;;2.79;84.03
49759;BME280;35654;46.080;11.118;2022-11-20T05:58:30;98890.06;;;2.76;84.65
49759;BME280;35654;46.080;11.118;2022-11-20T06:01:20;98897.13;;;2.77;84.07
49759;BME280;35654;46.080;11.118;2022-11-20T06:03:47;98902.53;;;2.77;83.78
49759;BME280;35654;46.080;11.118;2022-11-20T06:06:14;98901.47;;;2.78;83.92
49759;BME280;35654;46.080;11.118;2022-11-20T06:08:39;98899.59;;;2.79;83.98
49759;BME280;35654;46.080;11.118;2022-11-20T06:11:06;98894.19;;;2.79;84.11
49759;BME280;35654;46.080;11.118;2022-11-20T06:13:33;98902.31;;;2.79;84.14
49759;BME280;35654;46.080;11.118;2022-11-20T06:15:58;98905.00;;;2.79;83.79
49759;BME280;35654;46.080;11.118;2022-11-20T06:18:26;98907.44;;;2.80;83.44
49759;BME280;35654;46.080;11.118;2022-11-20T06:21:02;98909.00;;;2.76;82.83
49759;BME280;35654;46.080;11.118;2022-11-20T06:23:30;98913.25;;;2.67;83.45
49759;BME280;35654;46.080;11.118;2022-11-20T06:25:56;98915.38;;;2.65;83.37
49759;BME280;35654;46.080;11.118;2022-11-20T06:28:22;98911.63;;;2.66;83.56
49759;BME280;35654;46.080;11.118;2022-11-20T06:30:47;98923.50;;;2.65;83.71
49759;BME280;35654;46.080;11.118;2022-11-20T06:33:13;98931.41;;;2.72;83.21
49759;BME280;35654;46.080;11.118;2022-11-20T06:35:38;98927.94;;;2.76;82.48
49759;BME280;35654;46.080;11.118;2022-11-20T06:38:03;98923.66;;;2.80;82.13
49759;BME280;35654;46.080;11.118;2022-11-20T06:40:29;98928.28;;;2.85;81.60
49759;BME280;35654;46.080;11.118;2022-11-20T06:42:54;98938.34;;;2.89;81.43
49759;BME280;35654;46.080;11.118;2022-11-20T06:45:20;98937.56;;;2.94;80.85
49759;BME280;35654;46.080;11.118;2022-11-20T06:47:46;98944.34;;;2.97;80.41
49759;BME280;35654;46.080;11.118;2022-11-20T06:50:11;98945.19;;;2.97;79.58
49759;BME280;35654;46.080;11.118;2022-11-20T06:52:36;98953.84;;;2.99;79.15
49759;BME280;35654;46.080;11.118;2022-11-20T06:55:02;98949.56;;;3.03;78.40
49759;BME280;35654;46.080;11.118;2022-11-20T06:57:27;98947.69;;;3.04;77.79
49759;BME280;35654;46.080;11.118;2022-11-20T06:59:53;98958.00;;;3.07;77.63
49759;BME280;35654;46.080;11.118;2022-11-20T07:02:18;98950.97;;;3.11;76.23
49759;BME280;35654;46.080;11.118;2022-11-20T07:04:43;98953.19;;;3.14;75.07
49759;BME280;35654;46.080;11.118;2022-11-20T07:07:09;98956.72;;;3.14;75.11
49759;BME280;35654;46.080;11.118;2022-11-20T07:09:34;98962.34;;;3.13;75.75
49759;BME280;35654;46.080;11.118;2022-11-20T07:12:00;98965.88;;;3.13;75.42
49759;BME280;35654;46.080;11.118;2022-11-20T07:14:25;98966.16;;;3.12;76.04
49759;BME280;35654;46.080;11.118;2022-11-20T07:16:51;98966.16;;;3.12;76.29
49759;BME280;35654;46.080;11.118;2022-11-20T07:19:16;98966.91;;;3.07;76.49
49759;BME280;35654;46.080;11.118;2022-11-20T07:21:41;98978.03;;;3.11;76.77
49759;BME280;35654;46.080;11.118;2022-11-20T07:24:07;98981.56;;;3.11;76.47
49759;BME280;35654;46.080;11.118;2022-11-20T07:26:32;98984.34;;;3.21;76.35
49759;BME280;35654;46.080;11.118;2022-11-20T07:28:58;98976.81;;;3.23;75.90
49759;BME280;35654;46.080;11.118;2022-11-20T07:31:23;98981.75;;;3.31;75.93
49759;BME280;35654;46.080;11.118;2022-11-20T07:33:48;98989.38;;;3.34;75.46
49759;BME280;35654;46.080;11.118;2022-11-20T07:36:14;98988.78;;;3.32;75.79
49759;BME280;35654;46.080;11.118;2022-11-20T07:38:39;98988.03;;;3.37;75.73
49759;BME280;35654;46.080;11.118;2022-11-20T07:41:04;98982.91;;;3.40;74.87
49759;BME280;35654;46.080;11.118;2022-11-20T07:43:30;98983.16;;;3.39;75.59
49759;BME280;35654;46.080;11.118;2022-11-20T07:45:56;98976.97;;;3.43;75.59
49759;BME280;35654;46.080;11.118;2022-11-20T07:48:22;98982.69;;;3.47;75.15
49759;BME280;35654;46.080;11.118;2022-11-20T07:50:48;98989.22;;;3.51;75.33
49759;BME280;35654;46.080;11.118;2022-11-20T07:53:13;98986.06;;;3.64;74.58
49759;BME280;35654;46.080;11.118;2022-11-20T07:55:39;98991.53;;;3.69;73.69
49759;BME280;35654;46.080;11.118;2022-11-20T07:58:04;98989.47;;;3.81;74.07
49759;BME280;35654;46.080;11.118;2022-11-20T08:00:30;98994.97;;;3.96;73.39
49759;BME280;35654;46.080;11.118;2022-11-20T08:02:55;98998.59;;;4.12;72.82
49759;BME280;35654;46.080;11.118;2022-11-20T08:05:21;98993.00;;;4.29;71.64
49759;BME280;35654;46.080;11.118;2022-11-20T08:07:46;99001.22;;;4.49;71.45
49759;BME280;35654;46.080;11.118;2022-11-20T08:10:13;99006.47;;;4.65;70.36
49759;BME280;35654;46.080;11.118;2022-11-20T08:12:47;99008.66;;;4.79;69.43
49759;BME280;35654;46.080;11.118;2022-11-20T08:15:31;99009.78;;;4.93;69.03
49759;BME280;35654;46.080;11.118;2022-11-20T08:18:06;99013.63;;;5.07;68.65
49759;BME280;35654;46.080;11.118;2022-11-20T08:20:32;99017.19;;;5.17;67.71
49759;BME280;35654;46.080;11.118;2022-11-20T08:23:02;99010.16;;;5.26;66.71
49759;BME280;35654;46.080;11.118;2022-11-20T08:25:29;99010.44;;;5.40;66.10
49759;BME280;35654;46.080;11.118;2022-11-20T08:27:56;99013.72;;;5.52;66.00
49759;BME280;35654;46.080;11.118;2022-11-20T08:30:22;99009.91;;;5.68;64.95
49759;BME280;35654;46.080;11.118;2022-11-20T08:32:47;99004.75;;;5.82;64.79
49759;BME280;35654;46.080;11.118;2022-11-20T08:35:12;99007.50;;;5.97;62.83
49759;BME280;35654;46.080;11.118;2022-11-20T08:37:38;99012.06;;;6.12;61.81
49759;BME280;35654;46.080;11.118;2022-11-20T08:40:10;99000.63;;;6.25;61.51
49759;BME280;35654;46.080;11.118;2022-11-20T08:42:36;99001.41;;;6.40;61.24
49759;BME280;35654;46.080;11.118;2022-11-20T08:45:02;98996.50;;;6.48;60.02
49759;BME280;35654;46.080;11.118;2022-11-20T08:47:27;98997.28;;;6.58;59.74
49759;BME280;35654;46.080;11.118;2022-11-20T08:49:53;98998.56;;;6.71;59.05
49759;BME280;35654;46.080;11.118;2022-11-20T08:52:18;99000.16;;;6.82;58.47
49759;BME280;35654;46.080;11.118;2022-11-20T08:54:44;99000.97;;;6.82;57.64
49759;BME280;35654;46.080;11.118;2022-11-20T08:57:09;99007.16;;;6.93;57.59
49759;BME280;35654;46.080;11.118;2022-11-20T08:59:34;99000.66;;;6.94;57.28
49759;BME280;35654;46.080;11.118;2022-11-20T09:01:59;98984.81;;;7.01;56.98
49759;BME280;35654;46.080;11.118;2022-11-20T09:04:25;98991.81;;;7.12;56.92
49759;BME280;35654;46.080;11.118;2022-11-20T09:06:50;98992.03;;;7.26;56.91
49759;BME280;35654;46.080;11.118;2022-11-20T09:09:17;99001.75;;;7.37;55.56
49759;BME280;35654;46.080;11.118;2022-11-20T09:11:43;98995.72;;;7.40;54.58
49759;BME280;35654;46.080;11.118;2022-11-20T09:14:08;98999.81;;;7.42;54.54
49759;BME280;35654;46.080;11.118;2022-11-20T09:16:34;99002.38;;;7.62;54.34
49759;BME280;35654;46.080;11.118;2022-11-20T09:18:59;99002.53;;;7.76;54.26
49759;BME280;35654;46.080;11.118;2022-11-20T09:21:24;98992.94;;;7.84;53.88
49759;BME280;35654;46.080;11.118;2022-11-20T09:23:53;98999.09;;;7.94;52.98
49759;BME280;35654;46.080;11.118;2022-11-20T09:26:24;98992.75;;;8.04;53.08
49759;BME280;35654;46.080;11.118;2022-11-20T09:28:50;98991.81;;;8.13;52.41
49759;BME280;35654;46.080;11.118;2022-11-20T09:31:25;98997.47;;;8.22;52.53
49759;BME280;35654;46.080;11.118;2022-11-20T09:33:51;98994.66;;;8.32;51.90
49759;BME280;35654;46.080;11.118;2022-11-20T09:36:17;98990.72;;;8.43;51.13
49759;BME280;35654;46.080;11.118;2022-11-20T09:38:44;98987.31;;;8.56;50.49
49759;BME280;35654;46.080;11.118;2022-11-20T09:44:03;98990.75;;;8.86;50.36
49759;BME280;35654;46.080;11.118;2022-11-20T09:46:43;98988.84;;;9.05;49.56
49759;BME280;35654;46.080;11.118;2022-11-20T09:54:19;98971.78;;;9.50;47.18
49759;BME280;35654;46.080;11.118;2022-11-20T09:56:49;98972.66;;;9.64;46.67
49759;BME280;35654;46.080;11.118;2022-11-20T09:59:46;98978.19;;;9.78;45.23
49759;BME280;35654;46.080;11.118;2022-11-20T10:02:41;98968.91;;;10.52;43.84
49759;BME280;35654;46.080;11.118;2022-11-20T10:05:15;98961.38;;;14.51;36.87
49759;BME280;35654;46.080;11.118;2022-11-20T10:07:52;98950.13;;;19.16;29.13
49759;BME280;35654;46.080;11.118;2022-11-20T10:10:35;98947.84;;;20.78;26.27
49759;BME280;35654;46.080;11.118;2022-11-20T10:15:46;98943.91;;;23.09;22.25
49759;BME280;35654;46.080;11.118;2022-11-20T10:18:26;98938.97;;;23.39;21.66
49759;BME280;35654;46.080;11.118;2022-11-20T10:21:11;98932.78;;;23.88;20.98
49759;BME280;35654;46.080;11.118;2022-11-20T10:26:40;98933.97;;;23.15;21.63
49759;BME280;35654;46.080;11.118;2022-11-20T10:29:19;98926.03;;;23.96;20.78
49759;BME280;35654;46.080;11.118;2022-11-20T10:31:54;98922.31;;;23.64;20.33
49759;BME280;35654;46.080;11.118;2022-11-20T10:34:38;98929.53;;;23.07;20.85
49759;BME280;35654;46.080;11.118;2022-11-20T10:37:17;98918.25;;;23.47;20.77
49759;BME280;35654;46.080;11.118;2022-11-20T10:42:31;98904.53;;;25.45;18.86
49759;BME280;35654;46.080;11.118;2022-11-20T10:45:15;98909.34;;;24.14;19.35
49759;BME280;35654;46.080;11.118;2022-11-20T10:47:41;98902.03;;;25.72;18.69
49759;BME280;35654;46.080;11.118;2022-11-20T10:50:11;98905.66;;;26.45;18.18
49759;BME280;35654;46.080;11.118;2022-11-20T10:55:44;98893.84;;;22.35;21.73
49759;BME280;35654;46.080;11.118;2022-11-20T10:58:18;98888.00;;;23.67;20.43
49759;BME280;35654;46.080;11.118;2022-11-20T11:00:47;98882.22;;;22.30;21.71
49759;BME280;35654;46.080;11.118;2022-11-20T11:03:29;98883.44;;;22.76;21.61
49759;BME280;35654;46.080;11.118;2022-11-20T11:06:17;98881.41;;;24.70;19.74
49759;BME280;35654;46.080;11.118;2022-11-20T11:08:47;98868.66;;;23.37;20.45
49759;BME280;35654;46.080;11.118;2022-11-20T11:11:23;98857.56;;;23.51;20.53
49759;BME280;35654;46.080;11.118;2022-11-20T11:13:50;98859.81;;;24.92;19.13
49759;BME280;35654;46.080;11.118;2022-11-20T11:16:25;98847.28;;;26.74;17.40
49759;BME280;35654;46.080;11.118;2022-11-20T11:18:51;98850.53;;;27.13;17.36
49759;BME280;35654;46.080;11.118;2022-11-20T11:21:27;98845.72;;;27.47;16.88
49759;BME280;35654;46.080;11.118;2022-11-20T11:23:57;98843.16;;;27.60;16.46
49759;BME280;35654;46.080;11.118;2022-11-20T11:26:23;98847.81;;;24.53;19.14
49759;BME280;35654;46.080;11.118;2022-11-20T11:29:00;98839.41;;;24.53;19.29
49759;BME280;35654;46.080;11.118;2022-11-20T11:31:26;98836.19;;;26.01;18.38
49759;BME280;35654;46.080;11.118;2022-11-20T11:33:52;98833.38;;;25.04;18.33
49759;BME280;35654;46.080;11.118;2022-11-20T11:36:20;98826.97;;;24.08;20.10
49759;BME280;35654;46.080;11.118;2022-11-20T11:38:51;98817.47;;;26.39;18.12
49759;BME280;35654;46.080;11.118;2022-11-20T11:41:24;98819.00;;;25.92;17.85
49759;BME280;35654;46.080;11.118;2022-11-20T11:43:55;98817.59;;;25.59;18.11
49759;BME280;35654;46.080;11.118;2022-11-20T11:46:44;98801.56;;;27.10;17.33
49759;BME280;35654;46.080;11.118;2022-11-20T11:49:16;98803.16;;;26.71;17.77
49759;BME280;35654;46.080;11.118;2022-11-20T11:54:26;98800.88;;;26.07;17.72
49759;BME280;35654;46.080;11.118;2022-11-20T11:56:55;98799.59;;;27.07;17.15
49759;BME280;35654;46.080;11.118;2022-11-20T12:02:31;98788.69;;;28.54;15.70
49759;BME280;35654;46.080;11.118;2022-11-20T12:05:26;98792.81;;;28.72;15.83
49759;BME280;35654;46.080;11.118;2022-11-20T12:11:05;98782.31;;;28.96;15.17
49759;BME280;35654;46.080;11.118;2022-11-20T12:14:01;98785.22;;;28.69;15.83
49759;BME280;35654;46.080;11.118;2022-11-20T12:16:35;98781.44;;;28.99;15.62
49759;BME280;35654;46.080;11.118;2022-11-20T12:19:01;98764.28;;;28.47;16.09
49759;BME280;35654;46.080;11.118;2022-11-20T12:43:21;98742.94;;;25.00;18.63
49759;BME280;35654;46.080;11.118;2022-11-20T12:54:15;98729.88;;;26.14;18.00
49759;BME280;35654;46.080;11.118;2022-11-20T13:02:25;98733.69;;;26.37;16.96
49759;BME280;35654;46.080;11.118;2022-11-20T13:05:04;98726.78;;;26.01;17.51
49759;BME280;35654;46.080;11.118;2022-11-20T13:07:35;98728.94;;;26.72;16.97
49759;BME280;35654;46.080;11.118;2022-11-20T13:10:01;98725.28;;;28.69;15.18
49759;BME280;35654;46.080;11.118;2022-11-20T13:12:41;98721.97;;;26.46;16.90
49759;BME280;35654;46.080;11.118;2022-11-20T13:18:04;98721.06;;;24.59;19.15
49759;BME280;35654;46.080;11.118;2022-11-20T13:20:32;98702.38;;;25.94;18.06
49759;BME280;35654;46.080;11.118;2022-11-20T13:22:59;98693.97;;;26.76;17.14
49759;BME280;35654;46.080;11.118;2022-11-20T13:25:31;98699.47;;;24.53;19.37
49759;BME280;35654;46.080;11.118;2022-11-20T13:28:00;98691.72;;;22.91;20.02
49759;BME280;35654;46.080;11.118;2022-11-20T13:30:26;98689.09;;;24.53;18.52
49759;BME280;35654;46.080;11.118;2022-11-20T13:32:53;98685.09;;;26.81;16.92
49759;BME280;35654;46.080;11.118;2022-11-20T13:38:10;98687.41;;;26.52;17.03
49759;BME280;35654;46.080;11.118;2022-11-20T13:43:40;98694.50;;;20.38;23.61
49759;BME280;35654;46.080;11.118;2022-11-20T13:46:08;98688.19;;;18.28;26.98
49759;BME280;35654;46.080;11.118;2022-11-20T13:48:42;98686.38;;;16.95;29.63
49759;BME280;35654;46.080;11.118;2022-11-20T13:51:30;98697.13;;;15.11;32.67
49759;BME280;35654;46.080;11.118;2022-11-20T14:01:57;98700.13;;;13.45;37.64
49759;BME280;35654;46.080;11.118;2022-11-20T14:04:30;98702.13;;;13.18;38.18
49759;BME280;35654;46.080;11.118;2022-11-20T14:06:58;98697.63;;;13.05;37.85
49759;BME280;35654;46.080;11.118;2022-11-20T14:09:33;98702.53;;;12.74;40.11
49759;BME280;35654;46.080;11.118;2022-11-20T14:12:02;98693.53;;;12.48;41.42
49759;BME280;35654;46.080;11.118;2022-11-20T14:14:29;98695.63;;;12.34;41.88
49759;BME280;35654;46.080;11.118;2022-11-20T14:19:44;98707.72;;;11.67;43.99
49759;BME280;35654;46.080;11.118;2022-11-20T14:24:43;98704.28;;;11.53;44.24
49759;BME280;35654;46.080;11.118;2022-11-20T14:27:16;98707.66;;;11.50;44.04
49759;BME280;35654;46.080;11.118;2022-11-20T14:29:44;98706.97;;;11.45;44.30
49759;BME280;35654;46.080;11.118;2022-11-20T14:32:10;98709.00;;;11.31;44.92
49759;BME280;35654;46.080;11.118;2022-11-20T14:34:39;98699.00;;;10.95;46.00